Clearwater, Florida
Current Conditions -  °F | °C
As of 3:55 AM on Wednesday 22 Oct 2014 (Local Time) from KCLW Reporting Station
Clear Clear  
Wind Chill: 70°   Ceiling: Unl
Heat Index: 70°   Visibility: 10mi
Dew Point: 68°   Wind: 3mph
Humidity: 94%   Direction: 20°NNE
Pressure: 29.93"   Gusts: NA
Location:  27.97°N, 82.8°W
Report Text: KCLW 220755Z AUTO 02003KT 10SM CLR 21/20 A2993 RMK AO2
Loading
Personal Weather Stations






























Interactive Weather Map New forecast layout! Learn more

10-Day Weather Forecast

Advertisements
Track Severe Weather on mobile